createdAt,value
2019-03-04T00:00:41.587Z,19.12
2019-03-04T00:03:14.761Z,18.85
2019-03-04T00:05:47.994Z,19.23
2019-03-04T00:08:19.119Z,18.12
2019-03-04T00:10:51.312Z,17.95
2019-03-04T00:13:25.336Z,17.30
2019-03-04T00:15:56.395Z,16.70
2019-03-04T00:18:27.589Z,16.55
2019-03-04T00:20:58.726Z,16.48
2019-03-04T00:23:29.832Z,16.15
2019-03-04T00:26:00.978Z,16.67
2019-03-04T00:28:32.248Z,16.35
2019-03-04T00:31:03.455Z,15.45
2019-03-04T00:33:34.687Z,15.93
2019-03-04T00:36:05.835Z,16.30
2019-03-04T00:38:37.207Z,16.73
2019-03-04T00:41:08.364Z,15.45
2019-03-04T00:43:39.694Z,15.78
2019-03-04T00:46:10.985Z,16.15
2019-03-04T00:48:42.304Z,16.05
2019-03-04T00:51:13.826Z,15.83
2019-03-04T00:53:44.988Z,15.68
2019-03-04T00:56:16.233Z,15.48
2019-03-04T00:58:47.835Z,16.55
2019-03-04T01:01:19.063Z,17.00
2019-03-04T01:03:50.484Z,16.65
2019-03-04T01:06:21.676Z,16.87
2019-03-04T01:08:52.914Z,16.00
2019-03-04T01:11:24.092Z,15.98
2019-03-04T01:13:55.218Z,15.83
2019-03-04T01:16:26.460Z,16.55
2019-03-04T01:18:57.531Z,16.07
2019-03-04T01:21:28.777Z,16.27
2019-03-04T01:24:00.020Z,16.25
2019-03-04T01:26:31.223Z,15.23
2019-03-04T01:29:04.541Z,14.93
2019-03-04T01:31:35.756Z,16.23
2019-03-04T01:34:07.011Z,15.23
2019-03-04T01:36:38.304Z,15.18
2019-03-04T01:39:09.747Z,15.18
2019-03-04T01:41:41.061Z,15.05
2019-03-04T01:44:12.347Z,14.98
2019-03-04T01:46:43.702Z,15.25
2019-03-04T01:49:14.834Z,17.02
2019-03-04T01:51:46.173Z,14.70
2019-03-04T01:54:17.374Z,15.95
2019-03-04T01:56:48.788Z,15.83
2019-03-04T01:59:20.244Z,16.00
2019-03-04T02:01:51.419Z,16.55
2019-03-04T02:04:22.662Z,15.53
2019-03-04T02:06:56.231Z,16.50
2019-03-04T02:09:27.711Z,16.55
2019-03-04T02:11:58.878Z,17.57
2019-03-04T02:14:30.060Z,17.52
2019-03-04T02:17:01.078Z,17.48
2019-03-04T02:19:32.329Z,16.52
2019-03-04T02:22:03.461Z,18.12
2019-03-04T02:24:35.385Z,18.37
2019-03-04T02:27:06.695Z,18.12
2019-03-04T02:29:38.079Z,18.55
2019-03-04T02:32:09.534Z,17.60
2019-03-04T02:34:40.831Z,17.73
2019-03-04T02:37:12.068Z,17.30
2019-03-04T02:39:43.393Z,17.77
2019-03-04T02:42:14.555Z,19.02
2019-03-04T02:44:45.629Z,19.23
2019-03-04T02:47:16.776Z,18.80
2019-03-04T02:49:48.004Z,20.30
2019-03-04T02:52:19.503Z,19.73
2019-03-04T02:54:53.494Z,19.00
2019-03-04T02:57:24.649Z,19.00
2019-03-04T02:59:55.790Z,19.37
2019-03-04T03:02:27.049Z,19.45
2019-03-04T03:04:58.132Z,19.50
2019-03-04T03:07:29.409Z,19.70
2019-03-04T03:10:00.600Z,20.25
2019-03-04T03:12:31.727Z,18.57
2019-03-04T03:15:03.023Z,19.50
2019-03-04T03:17:39.607Z,19.37
2019-03-04T03:20:17.212Z,19.57
2019-03-04T03:22:48.396Z,18.70
2019-03-04T03:25:19.629Z,21.33
2019-03-04T03:27:50.668Z,19.42
2019-03-04T03:30:23.417Z,18.95
2019-03-04T03:32:54.567Z,19.77
2019-03-04T03:35:25.771Z,18.32
2019-03-04T03:37:57.022Z,19.00
2019-03-04T03:40:28.913Z,18.80
2019-03-04T03:43:00.176Z,19.55
2019-03-04T03:45:31.365Z,20.37
2019-03-04T03:48:02.543Z,19.75
2019-03-04T03:50:33.765Z,21.30
2019-03-04T03:53:06.600Z,20.70
2019-03-04T03:55:37.634Z,21.40
2019-03-04T03:58:10.033Z,18.05
2019-03-04T04:00:41.401Z,20.20
2019-03-04T04:03:12.838Z,20.10
2019-03-04T04:05:44.016Z,17.75
2019-03-04T04:08:15.134Z,19.92
2019-03-04T04:10:46.277Z,20.70
2019-03-04T04:13:17.530Z,19.42
2019-03-04T04:15:48.896Z,20.80
2019-03-04T04:18:19.949Z,20.50
2019-03-04T04:20:51.201Z,20.52
2019-03-04T04:23:22.410Z,20.17
2019-03-04T04:25:53.627Z,22.13
2019-03-04T04:28:24.773Z,21.15
2019-03-04T04:30:56.080Z,20.48
2019-03-04T04:33:27.249Z,20.77
2019-03-04T04:35:58.408Z,22.73
2019-03-04T04:38:29.461Z,23.98
2019-03-04T04:41:00.606Z,24.32
2019-03-04T04:43:31.711Z,22.98
2019-03-04T04:46:02.938Z,24.77
2019-03-04T04:48:34.175Z,25.57
2019-03-04T04:51:05.620Z,23.60
2019-03-04T04:53:36.936Z,24.57
2019-03-04T04:56:08.224Z,23.45
2019-03-04T04:58:39.422Z,24.60
2019-03-04T05:01:11.884Z,23.35
2019-03-04T05:03:43.368Z,23.80
2019-03-04T05:06:14.782Z,25.12
2019-03-04T05:08:49.034Z,25.43
2019-03-04T05:11:20.418Z,25.48
2019-03-04T05:13:51.577Z,26.87
2019-03-04T05:16:24.918Z,25.72
2019-03-04T05:18:58.027Z,24.37
2019-03-04T05:21:29.242Z,25.40
2019-03-04T05:24:00.455Z,22.27
2019-03-04T05:26:31.778Z,24.07
2019-03-04T05:29:02.963Z,24.18
2019-03-04T05:31:34.268Z,24.87
2019-03-04T05:34:05.476Z,24.82
2019-03-04T05:36:36.750Z,24.18
2019-03-04T05:39:07.975Z,25.20
2019-03-04T05:41:46.129Z,23.38
2019-03-04T05:44:17.452Z,24.57
2019-03-04T05:46:48.734Z,23.57
2019-03-04T05:49:22.095Z,25.32
2019-03-04T05:51:54.468Z,24.12
2019-03-04T05:54:25.649Z,26.07
2019-03-04T05:56:56.826Z,24.55
2019-03-04T05:59:27.874Z,25.50
2019-03-04T06:02:05.590Z,25.02
2019-03-04T06:04:36.826Z,24.85
2019-03-04T06:07:09.623Z,25.12
2019-03-04T06:09:40.777Z,26.20
2019-03-04T06:12:11.815Z,25.97
2019-03-04T06:14:42.889Z,25.97
2019-03-04T06:17:14.138Z,26.30
2019-03-04T06:19:45.265Z,24.80
2019-03-04T06:22:18.124Z,24.65
2019-03-04T06:24:49.545Z,24.72
2019-03-04T06:27:20.909Z,23.67
2019-03-04T06:29:52.373Z,24.20
2019-03-04T06:32:23.720Z,25.70
2019-03-04T06:34:55.138Z,25.32
2019-03-04T06:37:26.448Z,26.27
2019-03-04T06:39:58.481Z,25.85
2019-03-04T06:42:29.693Z,25.43
2019-03-04T06:45:01.126Z,25.27
2019-03-04T06:47:32.477Z,24.85
2019-03-04T06:50:04.748Z,24.98
2019-03-04T06:52:36.191Z,23.27
2019-03-04T06:55:16.970Z,23.98
2019-03-04T06:57:58.085Z,24.72
2019-03-04T07:00:33.536Z,23.22
2019-03-04T07:03:05.135Z,26.62
2019-03-04T07:06:19.642Z,25.82
2019-03-04T07:08:54.304Z,25.43
2019-03-04T07:11:25.473Z,23.92
2019-03-04T07:13:56.669Z,24.43
2019-03-04T07:16:27.879Z,23.95
2019-03-04T07:18:58.993Z,24.98
2019-03-04T07:21:30.591Z,24.65
2019-03-04T07:24:02.617Z,23.80
2019-03-04T07:26:34.185Z,23.38
2019-03-04T07:29:05.316Z,23.50
2019-03-04T07:31:37.638Z,23.90
2019-03-04T07:34:09.108Z,22.48
2019-03-04T07:36:40.322Z,21.15
2019-03-04T07:39:12.174Z,23.32
2019-03-04T07:41:43.354Z,21.70
2019-03-04T07:44:15.050Z,20.77
2019-03-04T07:46:46.487Z,21.35
2019-03-04T07:49:17.712Z,21.77
2019-03-04T07:51:49.136Z,21.95
2019-03-04T07:54:20.367Z,21.93
2019-03-04T07:56:51.475Z,21.65
2019-03-04T07:59:22.756Z,20.92
2019-03-04T08:01:53.902Z,21.52
2019-03-04T08:04:25.145Z,21.62
2019-03-04T08:07:23.254Z,21.23
2019-03-04T08:10:00.761Z,20.68
2019-03-04T08:12:53.420Z,24.67
2019-03-04T08:15:24.890Z,20.43
2019-03-04T08:17:56.092Z,20.90
2019-03-04T08:20:27.277Z,19.70
2019-03-04T08:22:58.767Z,20.50
2019-03-04T08:25:29.988Z,20.75
2019-03-04T08:28:01.225Z,23.22
2019-03-04T08:30:33.465Z,18.82
2019-03-04T08:33:04.922Z,18.75
2019-03-04T08:35:36.093Z,19.75
2019-03-04T08:38:07.448Z,19.00
2019-03-04T08:40:38.834Z,18.42
2019-03-04T08:43:10.093Z,19.60
2019-03-04T08:45:41.463Z,18.48
2019-03-04T08:48:12.538Z,18.80
2019-03-04T08:50:43.860Z,17.57
2019-03-04T08:53:15.168Z,31.45
2019-03-04T08:55:46.245Z,16.65
2019-03-04T08:58:18.784Z,19.73
2019-03-04T09:00:50.273Z,16.95
2019-03-04T09:03:21.569Z,17.98
2019-03-04T09:05:52.824Z,17.17
2019-03-04T09:08:23.952Z,17.10
2019-03-04T09:10:55.237Z,17.20
2019-03-04T09:13:26.689Z,16.55
2019-03-04T09:15:57.985Z,16.87
2019-03-04T09:18:32.066Z,18.02
2019-03-04T09:21:03.561Z,18.02
2019-03-04T09:23:34.899Z,17.40
2019-03-04T09:26:09.018Z,17.23
2019-03-04T09:28:40.926Z,17.92
2019-03-04T09:31:12.192Z,16.75
2019-03-04T09:33:43.519Z,17.80
2019-03-04T09:36:14.677Z,19.32
2019-03-04T09:38:45.937Z,17.25
2019-03-04T09:41:18.321Z,16.48
2019-03-04T09:43:49.589Z,18.07
2019-03-04T09:46:20.855Z,17.05
2019-03-04T09:48:52.153Z,17.45
2019-03-04T09:51:24.862Z,17.75
2019-03-04T09:53:56.136Z,18.48
2019-03-04T09:56:27.380Z,16.07
2019-03-04T09:58:59.108Z,16.95
2019-03-04T10:01:36.534Z,16.77
2019-03-04T10:04:16.918Z,16.77
2019-03-04T10:06:53.981Z,17.02
2019-03-04T10:09:46.722Z,18.25
2019-03-04T10:12:45.418Z,18.23
2019-03-04T10:15:36.273Z,19.02
2019-03-04T10:18:30.411Z,18.75
2019-03-04T10:21:07.911Z,18.45
2019-03-04T10:23:52.503Z,19.07
2019-03-04T10:26:44.468Z,18.23
2019-03-04T10:29:47.694Z,19.17
2019-03-04T10:32:40.858Z,19.50
2019-03-04T10:35:33.522Z,18.85
2019-03-04T10:38:22.541Z,20.20
2019-03-04T10:40:58.718Z,20.48
2019-03-04T10:43:36.062Z,21.30
2019-03-04T10:46:32.418Z,19.48
2019-03-04T10:49:03.605Z,20.10
2019-03-04T10:51:34.888Z,19.42
2019-03-04T10:54:06.195Z,19.95
2019-03-04T10:56:37.407Z,21.02
2019-03-04T10:59:08.643Z,19.35
2019-03-04T11:01:39.957Z,20.37
2019-03-04T11:04:12.303Z,23.15
2019-03-04T11:06:43.596Z,20.55
2019-03-04T11:09:14.815Z,19.27
2019-03-04T11:11:46.460Z,20.12
2019-03-04T11:14:17.840Z,20.37
2019-03-04T11:16:54.909Z,19.70
2019-03-04T11:19:28.565Z,21.65
2019-03-04T11:22:00.257Z,19.50
2019-03-04T11:24:31.837Z,20.50
2019-03-04T11:27:03.034Z,20.45
2019-03-04T11:29:36.576Z,20.37
2019-03-04T11:32:09.109Z,20.17
2019-03-04T11:34:40.289Z,21.25
2019-03-04T11:37:11.519Z,21.05
2019-03-04T11:39:47.678Z,21.50
2019-03-04T11:42:20.719Z,20.25
2019-03-04T11:44:53.276Z,21.23
2019-03-04T11:47:28.072Z,21.73
2019-03-04T11:50:08.009Z,22.58
2019-03-04T11:52:40.602Z,22.40
2019-03-04T11:55:17.019Z,21.37
2019-03-04T11:57:48.298Z,22.10
2019-03-04T12:00:28.972Z,22.05
2019-03-04T12:03:00.525Z,21.82
2019-03-04T12:05:32.686Z,21.10
2019-03-04T12:08:04.076Z,21.68
2019-03-04T12:10:37.324Z,22.30
2019-03-04T12:13:09.618Z,21.73
2019-03-04T12:15:41.692Z,21.37
2019-03-04T12:18:13.016Z,22.20
2019-03-04T12:20:46.540Z,21.25
2019-03-04T12:23:27.764Z,21.82
2019-03-04T12:26:01.090Z,22.30
2019-03-04T12:28:33.866Z,21.87
2019-03-04T12:31:12.700Z,21.40
2019-03-04T12:33:53.537Z,22.02
2019-03-04T12:36:25.026Z,22.10
2019-03-04T12:39:00.063Z,22.13
2019-03-04T12:41:31.583Z,22.22
2019-03-04T12:44:04.151Z,21.90
2019-03-04T12:46:37.802Z,21.33
2019-03-04T12:49:08.955Z,20.75
2019-03-04T12:51:40.240Z,21.10
2019-03-04T12:54:20.261Z,20.17
2019-03-04T12:56:53.019Z,21.40
2019-03-04T12:59:24.979Z,52.48
2019-03-04T13:01:56.303Z,21.20
2019-03-04T13:04:27.633Z,20.82
2019-03-04T13:06:58.967Z,20.45
2019-03-04T13:09:30.334Z,20.77
2019-03-04T13:12:02.131Z,21.52
2019-03-04T13:14:34.544Z,20.88
2019-03-04T13:17:05.836Z,21.52
2019-03-04T13:19:38.849Z,22.60
2019-03-04T13:22:10.620Z,22.30
2019-03-04T13:24:42.899Z,21.17
2019-03-04T13:27:23.371Z,23.32
2019-03-04T13:29:47.532Z,22.75
2019-03-04T13:32:21.168Z,21.97
2019-03-04T13:34:54.377Z,22.82
2019-03-04T13:37:25.715Z,23.38
2019-03-04T13:39:58.589Z,21.70
2019-03-04T13:42:29.938Z,23.02
2019-03-04T13:45:01.149Z,24.00
2019-03-04T13:47:32.600Z,23.42
2019-03-04T13:50:09.427Z,25.00
2019-03-04T13:52:40.913Z,25.52
2019-03-04T13:55:12.286Z,24.67
2019-03-04T13:57:43.575Z,24.47
2019-03-04T14:00:17.521Z,24.15
2019-03-04T14:02:52.389Z,24.15
2019-03-04T14:05:24.662Z,25.02
2019-03-04T14:07:57.238Z,25.92
2019-03-04T14:10:43.985Z,26.17
2019-03-04T14:13:15.290Z,25.02
2019-03-04T14:15:54.854Z,24.15
2019-03-04T14:18:26.100Z,23.47
2019-03-04T14:20:57.774Z,23.40
2019-03-04T14:23:28.948Z,23.47
2019-03-04T14:26:00.425Z,23.05
2019-03-04T14:28:31.588Z,22.98
2019-03-04T14:31:08.331Z,22.10
2019-03-04T14:36:13.234Z,21.95
2019-03-04T14:38:44.422Z,23.02
2019-03-04T14:41:15.664Z,23.77
2019-03-04T14:43:47.002Z,21.50
2019-03-04T14:46:21.517Z,23.27
2019-03-04T14:48:52.796Z,22.60
2019-03-04T14:51:25.171Z,23.38
2019-03-04T14:53:56.691Z,22.20
2019-03-04T14:56:28.015Z,23.05
2019-03-04T14:59:10.552Z,23.60
2019-03-04T15:01:34.250Z,27.65
2019-03-04T15:04:05.516Z,24.30
2019-03-04T15:06:38.740Z,23.70
2019-03-04T15:09:11.454Z,21.87
2019-03-04T15:11:42.656Z,22.95
2019-03-04T15:14:13.888Z,23.18
2019-03-04T15:16:44.985Z,22.20
2019-03-04T15:19:16.212Z,23.47
2019-03-04T15:21:49.154Z,24.50
2019-03-04T15:24:20.610Z,23.65
2019-03-04T15:26:51.732Z,23.32
2019-03-04T15:29:23.014Z,23.60
2019-03-04T15:31:54.490Z,22.77
2019-03-04T15:34:25.855Z,22.55
2019-03-04T15:36:57.382Z,23.60
2019-03-04T15:39:29.151Z,22.52
2019-03-04T15:42:00.501Z,22.98
2019-03-04T15:44:31.900Z,24.12
2019-03-04T15:47:05.809Z,24.80
2019-03-04T15:49:37.363Z,24.30
2019-03-04T15:52:08.625Z,24.67
2019-03-04T15:54:40.176Z,25.00
2019-03-04T15:57:12.642Z,26.20
2019-03-04T15:59:43.960Z,25.95
2019-03-04T16:02:15.720Z,26.75
2019-03-04T16:04:48.098Z,26.35
2019-03-04T16:07:19.642Z,27.87
2019-03-04T16:09:53.285Z,30.00
2019-03-04T16:12:25.940Z,28.57
2019-03-04T16:14:57.324Z,29.37
2019-03-04T16:17:29.547Z,28.35
2019-03-04T16:20:00.814Z,28.65
2019-03-04T16:22:32.026Z,26.42
2019-03-04T16:25:03.356Z,26.60
2019-03-04T16:27:36.707Z,26.37
2019-03-04T16:30:17.608Z,26.73
2019-03-04T16:32:48.771Z,27.73
2019-03-04T16:35:20.203Z,29.00
2019-03-04T16:37:52.430Z,26.37
2019-03-04T16:40:24.520Z,27.75
2019-03-04T16:42:55.723Z,27.93
2019-03-04T16:45:26.881Z,27.22
2019-03-04T16:47:58.380Z,27.42
2019-03-04T16:50:32.727Z,27.80
2019-03-04T16:53:07.025Z,28.42
2019-03-04T16:55:39.309Z,27.70
2019-03-04T16:58:10.729Z,29.57
2019-03-04T17:00:42.115Z,28.30
2019-03-04T17:03:14.388Z,26.93
2019-03-04T17:05:46.005Z,27.05
2019-03-04T17:08:17.227Z,26.35
2019-03-04T17:10:48.562Z,27.50
2019-03-04T17:13:19.899Z,27.50
2019-03-04T17:15:52.286Z,26.40
2019-03-04T17:18:23.620Z,27.13
2019-03-04T17:20:55.575Z,26.27
2019-03-04T17:23:27.339Z,27.15
2019-03-04T17:26:00.730Z,26.37
2019-03-04T17:28:35.402Z,25.92
2019-03-04T17:31:08.573Z,26.60
2019-03-04T17:33:39.716Z,26.87
2019-03-04T17:36:11.008Z,27.40
2019-03-04T17:38:42.224Z,27.35
2019-03-04T17:41:13.460Z,26.75
2019-03-04T17:43:44.689Z,26.02
2019-03-04T17:46:16.032Z,27.32
2019-03-04T17:48:48.329Z,25.95
2019-03-04T17:51:20.997Z,26.40
2019-03-04T17:53:52.325Z,26.85
2019-03-04T17:56:23.617Z,26.87
2019-03-04T17:58:55.013Z,26.65
2019-03-04T18:01:26.510Z,25.52
2019-03-04T18:03:57.781Z,27.40
2019-03-04T18:06:28.919Z,27.13
2019-03-04T18:09:00.296Z,26.73
2019-03-04T18:11:32.275Z,26.45
2019-03-04T18:14:04.101Z,26.45
2019-03-04T18:16:35.408Z,28.00
2019-03-04T18:19:06.846Z,27.48
2019-03-04T18:21:38.179Z,28.95
2019-03-04T18:24:09.536Z,28.77
2019-03-04T18:26:43.270Z,28.47
2019-03-04T18:29:36.896Z,28.42
2019-03-04T18:32:17.193Z,28.83
2019-03-04T18:35:09.909Z,29.32
2019-03-04T18:37:53.503Z,28.95
2019-03-04T18:40:46.523Z,31.17
2019-03-04T18:43:40.114Z,30.88
2019-03-04T18:46:29.619Z,29.15
2019-03-04T18:49:01.767Z,31.55
2019-03-04T18:51:33.145Z,30.72
2019-03-04T18:54:06.509Z,31.40
2019-03-04T18:56:37.808Z,31.33
2019-03-04T18:59:09.349Z,30.27
2019-03-04T19:01:44.146Z,32.63
2019-03-04T19:04:15.636Z,32.48
2019-03-04T19:06:46.971Z,32.00
2019-03-04T19:09:19.469Z,31.97
2019-03-04T19:11:50.794Z,32.78
2019-03-04T19:14:22.173Z,34.00
2019-03-04T19:16:53.346Z,34.20
2019-03-04T19:19:24.635Z,35.08
2019-03-04T19:21:56.082Z,34.03
2019-03-04T19:24:28.381Z,32.55
2019-03-04T19:26:59.563Z,36.30
2019-03-04T19:29:32.499Z,34.33
2019-03-04T19:32:04.028Z,33.90
2019-03-04T19:34:35.222Z,34.53
2019-03-04T19:37:07.508Z,35.78
2019-03-04T19:39:38.998Z,33.15
2019-03-04T19:42:11.543Z,34.00
2019-03-04T19:44:43.815Z,33.70
2019-03-04T19:47:14.950Z,34.60
2019-03-04T19:49:46.413Z,34.10
2019-03-04T19:52:17.586Z,34.98
2019-03-04T19:54:54.186Z,35.65
2019-03-04T19:57:26.625Z,33.73
2019-03-04T19:59:57.974Z,34.25
2019-03-04T20:02:32.327Z,33.80
2019-03-04T20:05:04.314Z,33.58
2019-03-04T20:07:37.754Z,33.40
2019-03-04T20:10:14.553Z,33.10
2019-03-04T20:12:47.164Z,32.75
2019-03-04T20:15:27.539Z,32.10
2019-03-04T20:18:02.148Z,33.02
2019-03-04T20:20:35.579Z,31.20
2019-03-04T20:23:09.049Z,30.88
2019-03-04T20:25:40.568Z,33.28
2019-03-04T20:28:12.016Z,31.25
2019-03-04T20:30:44.421Z,31.25
2019-03-04T20:33:15.699Z,32.90
2019-03-04T20:35:48.472Z,30.92
2019-03-04T20:38:27.130Z,30.95
2019-03-04T20:40:59.496Z,31.57
2019-03-04T20:43:30.624Z,29.82
2019-03-04T20:46:04.755Z,31.10
2019-03-04T20:48:37.361Z,30.70
2019-03-04T20:51:08.846Z,30.27
2019-03-04T20:53:40.113Z,29.75
2019-03-04T20:56:11.492Z,29.32
2019-03-04T20:58:42.790Z,30.37
2019-03-04T21:01:14.825Z,29.05
2019-03-04T21:03:46.424Z,29.95
2019-03-04T21:06:17.990Z,28.60
2019-03-04T21:08:50.272Z,29.57
2019-03-04T21:11:21.560Z,29.85
2019-03-04T21:13:54.000Z,30.35
2019-03-04T21:16:26.916Z,29.30
2019-03-04T21:19:00.775Z,29.65
2019-03-04T21:21:32.754Z,27.50
2019-03-04T21:24:04.535Z,30.35
2019-03-04T21:26:36.001Z,31.12
2019-03-04T21:29:31.101Z,30.00
2019-03-04T21:32:12.188Z,29.57
2019-03-04T21:35:02.041Z,29.98
2019-03-04T21:37:36.977Z,29.48
2019-03-04T21:40:17.461Z,29.42
2019-03-04T21:42:58.570Z,28.90
2019-03-04T21:45:39.315Z,28.77
2019-03-04T21:48:16.415Z,29.10
2019-03-04T21:51:06.870Z,28.77
2019-03-04T21:53:47.473Z,29.23
2019-03-04T21:56:27.771Z,26.77
2019-03-04T21:59:00.121Z,27.70
2019-03-04T22:01:35.804Z,29.48
2019-03-04T22:04:07.443Z,28.60
2019-03-04T22:06:39.379Z,28.30
2019-03-04T22:09:12.331Z,28.07
2019-03-04T22:11:43.717Z,27.25
2019-03-04T22:14:14.955Z,26.93
2019-03-04T22:16:46.313Z,27.50
2019-03-04T22:19:18.734Z,26.33
2019-03-04T22:21:51.217Z,26.95
2019-03-04T22:24:22.468Z,26.25
2019-03-04T22:26:53.531Z,26.45
2019-03-04T22:29:24.964Z,25.77
2019-03-04T22:32:00.796Z,26.15
2019-03-04T22:34:32.177Z,26.90
2019-03-04T22:37:03.588Z,26.37
2019-03-04T22:39:34.846Z,25.37
2019-03-04T22:42:06.300Z,27.15
2019-03-04T22:44:37.686Z,27.22
2019-03-04T22:47:09.012Z,27.07
2019-03-04T22:49:44.236Z,26.27
2019-03-04T22:52:15.602Z,26.90
2019-03-04T22:54:46.993Z,27.85
2019-03-04T22:57:18.223Z,26.12
2019-03-04T22:59:49.506Z,25.97
2019-03-04T23:02:20.793Z,26.57
2019-03-04T23:04:52.065Z,26.10
2019-03-04T23:07:23.419Z,27.27
2019-03-04T23:10:07.556Z,26.27
2019-03-04T23:12:42.109Z,25.70
2019-03-04T23:15:17.088Z,28.00
2019-03-04T23:17:48.395Z,28.92
2019-03-04T23:20:23.118Z,31.55
2019-03-04T23:22:56.045Z,29.07
2019-03-04T23:25:28.920Z,31.40
2019-03-04T23:28:00.340Z,30.55
2019-03-04T23:30:32.906Z,29.07
2019-03-04T23:33:04.597Z,30.12
2019-03-04T23:35:35.738Z,29.85
2019-03-04T23:38:07.018Z,29.12
2019-03-04T23:40:38.134Z,29.52
2019-03-04T23:43:09.447Z,31.15
2019-03-04T23:45:40.585Z,30.43
2019-03-04T23:48:11.882Z,36.68
2019-03-04T23:50:42.976Z,33.08
2019-03-04T23:53:14.225Z,29.57
2019-03-04T23:55:45.585Z,28.87
2019-03-04T23:58:16.722Z,30.60
